createdAt,value
2022-07-28T00:01:18.441Z,17.00
2022-07-28T00:03:49.114Z,17.00
2022-07-28T00:06:19.510Z,17.00
2022-07-28T00:08:46.382Z,16.90
2022-07-28T00:11:13.369Z,16.90
2022-07-28T00:13:44.935Z,16.90
2022-07-28T00:16:13.932Z,16.90
2022-07-28T00:18:43.575Z,16.80
2022-07-28T00:21:13.203Z,16.80
2022-07-28T00:23:40.362Z,16.80
2022-07-28T00:26:11.935Z,16.80
2022-07-28T00:28:41.357Z,16.70
2022-07-28T00:31:11.542Z,16.70
2022-07-28T00:33:40.492Z,16.70
2022-07-28T00:36:10.325Z,16.70
2022-07-28T00:38:43.843Z,16.70
2022-07-28T00:41:14.015Z,16.60
2022-07-28T00:43:47.729Z,16.60
2022-07-28T00:46:16.506Z,16.50
2022-07-28T00:48:46.324Z,16.50
2022-07-28T00:51:21.568Z,16.50
2022-07-28T00:53:48.411Z,16.40
2022-07-28T00:56:15.405Z,16.40
2022-07-28T00:58:42.824Z,16.40
2022-07-28T01:01:11.821Z,16.40
2022-07-28T01:03:41.829Z,16.40
2022-07-28T01:06:47.921Z,16.40
2022-07-28T01:09:38.848Z,16.30
2022-07-28T01:12:20.924Z,16.30
2022-07-28T01:15:19.745Z,16.30
2022-07-28T01:18:06.898Z,16.20
2022-07-28T01:20:41.890Z,16.20
2022-07-28T01:23:19.021Z,16.20
2022-07-28T01:25:54.392Z,16.20
2022-07-28T01:28:42.819Z,16.10
2022-07-28T01:31:14.107Z,16.10
2022-07-28T01:33:51.420Z,16.10
2022-07-28T01:36:24.973Z,16.00
2022-07-28T01:38:51.990Z,16.00
2022-07-28T01:41:25.397Z,16.00
2022-07-28T01:43:57.317Z,16.00
2022-07-28T01:46:27.335Z,16.00
2022-07-28T01:48:56.554Z,15.90
2022-07-28T01:51:29.248Z,15.90
2022-07-28T01:53:59.302Z,15.90
2022-07-28T01:56:30.700Z,15.90
2022-07-28T01:59:06.141Z,15.90
2022-07-28T02:01:36.751Z,15.80
2022-07-28T02:04:08.164Z,15.80
2022-07-28T02:06:35.511Z,15.80
2022-07-28T02:09:06.821Z,15.80
2022-07-28T02:11:42.474Z,15.70
2022-07-28T02:14:14.151Z,15.70
2022-07-28T02:16:46.792Z,15.70
2022-07-28T02:19:17.459Z,15.70
2022-07-28T02:21:47.781Z,15.70
2022-07-28T02:24:19.950Z,15.60
2022-07-28T02:26:57.879Z,15.60
2022-07-28T02:29:49.759Z,15.60
2022-07-28T02:32:28.505Z,15.60
2022-07-28T02:35:05.312Z,15.50
2022-07-28T02:37:37.788Z,15.50
2022-07-28T02:40:11.911Z,15.50
2022-07-28T02:42:41.930Z,15.50
2022-07-28T02:45:11.934Z,15.40
2022-07-28T02:47:44.099Z,15.40
2022-07-28T02:50:12.734Z,15.40
2022-07-28T02:52:44.762Z,15.40
2022-07-28T02:55:15.505Z,15.40
2022-07-28T02:57:45.347Z,15.40
2022-07-28T03:00:15.812Z,15.30
2022-07-28T03:02:46.783Z,15.30
2022-07-28T03:05:15.709Z,15.30
2022-07-28T03:07:51.194Z,15.20
2022-07-28T03:10:33.143Z,15.20
2022-07-28T03:13:04.186Z,15.20
2022-07-28T03:15:31.672Z,15.20
2022-07-28T03:18:02.202Z,15.20
2022-07-28T03:20:30.295Z,15.10
2022-07-28T03:23:02.274Z,15.10
2022-07-28T03:25:43.582Z,15.10
2022-07-28T03:28:15.079Z,15.10
2022-07-28T03:30:45.557Z,15.10
2022-07-28T03:33:15.485Z,15.00
2022-07-28T03:35:46.196Z,15.00
2022-07-28T03:38:18.062Z,15.00
2022-07-28T03:40:46.962Z,15.00
2022-07-28T03:43:16.477Z,15.00
2022-07-28T03:45:46.590Z,15.00
2022-07-28T03:48:14.034Z,15.00
2022-07-28T03:50:43.162Z,15.00
2022-07-28T03:53:17.840Z,15.00
2022-07-28T03:55:50.493Z,15.00
2022-07-28T03:58:28.818Z,15.00
2022-07-28T04:00:58.781Z,15.00
2022-07-28T04:03:36.566Z,15.00
2022-07-28T04:06:11.288Z,15.00
2022-07-28T04:08:41.017Z,15.00
2022-07-28T04:11:12.814Z,14.90
2022-07-28T04:13:39.706Z,15.00
2022-07-28T04:16:07.290Z,15.00
2022-07-28T04:18:36.923Z,14.90
2022-07-28T04:21:08.398Z,14.90
2022-07-28T04:23:35.230Z,15.00
2022-07-28T04:26:02.109Z,15.00
2022-07-28T04:28:28.931Z,15.00
2022-07-28T04:30:56.035Z,15.00
2022-07-28T04:33:23.235Z,15.00
2022-07-28T04:35:52.708Z,15.00
2022-07-28T04:38:20.329Z,15.00
2022-07-28T04:40:51.521Z,15.10
2022-07-28T04:43:18.510Z,15.10
2022-07-28T04:45:53.243Z,15.10
2022-07-28T04:48:24.249Z,15.10
2022-07-28T04:50:53.068Z,15.10
2022-07-28T04:53:23.068Z,15.20
2022-07-28T04:55:51.873Z,15.20
2022-07-28T04:58:21.167Z,15.20
2022-07-28T05:00:53.245Z,15.20
2022-07-28T05:03:20.813Z,15.30
2022-07-28T05:05:54.139Z,15.30
2022-07-28T05:08:21.315Z,15.30
2022-07-28T05:10:50.865Z,15.40
2022-07-28T05:13:23.110Z,15.40
2022-07-28T05:15:49.908Z,15.40
2022-07-28T05:18:17.025Z,15.50
2022-07-28T05:20:43.869Z,15.60
2022-07-28T05:23:11.742Z,15.60
2022-07-28T05:25:39.101Z,15.60
2022-07-28T05:28:08.048Z,15.70
2022-07-28T05:30:37.035Z,15.70
2022-07-28T05:33:03.946Z,15.70
2022-07-28T05:35:30.698Z,15.80
2022-07-28T05:38:00.341Z,15.80
2022-07-28T05:40:27.871Z,15.90
2022-07-28T05:42:54.787Z,15.90
2022-07-28T05:45:21.678Z,15.90
2022-07-28T05:47:52.773Z,16.00
2022-07-28T05:50:26.043Z,16.00
2022-07-28T05:52:53.075Z,16.00
2022-07-28T05:55:20.869Z,16.10
2022-07-28T05:57:47.992Z,16.10
2022-07-28T06:00:20.742Z,16.20
2022-07-28T06:02:50.655Z,16.20
2022-07-28T06:05:22.360Z,16.30
2022-07-28T06:07:50.891Z,16.30
2022-07-28T06:10:22.836Z,16.30
2022-07-28T06:12:54.878Z,16.30
2022-07-28T06:15:26.635Z,16.40
2022-07-28T06:17:55.615Z,16.40
2022-07-28T06:20:24.476Z,16.50
2022-07-28T06:22:57.237Z,16.60
2022-07-28T06:25:28.955Z,16.60
2022-07-28T06:28:03.093Z,16.60
2022-07-28T06:30:30.355Z,16.60
2022-07-28T06:32:57.888Z,16.70
2022-07-28T06:35:25.153Z,16.70
2022-07-28T06:37:56.579Z,16.80
2022-07-28T06:40:26.074Z,16.80
2022-07-28T06:42:53.108Z,16.90
2022-07-28T06:45:21.811Z,16.90
2022-07-28T06:47:49.885Z,17.00
2022-07-28T06:50:25.917Z,17.10
2022-07-28T06:52:58.953Z,17.10
2022-07-28T06:55:28.439Z,17.10
2022-07-28T06:58:03.697Z,17.20
2022-07-28T07:00:33.390Z,17.30
2022-07-28T07:03:01.080Z,17.30
2022-07-28T07:05:32.275Z,17.30
2022-07-28T07:08:06.648Z,17.30
2022-07-28T07:10:33.500Z,17.30
2022-07-28T07:13:02.580Z,17.40
2022-07-28T07:15:29.442Z,17.50
2022-07-28T07:17:56.377Z,17.50
2022-07-28T07:20:25.497Z,17.60
2022-07-28T07:22:52.346Z,17.60
2022-07-28T07:25:20.033Z,17.70
2022-07-28T07:27:47.488Z,17.70
2022-07-28T07:30:16.058Z,17.80
2022-07-28T07:32:45.251Z,17.80
2022-07-28T07:35:14.780Z,17.90
2022-07-28T07:37:42.149Z,18.00
2022-07-28T07:40:13.411Z,18.00
2022-07-28T07:42:42.620Z,18.00
2022-07-28T07:45:09.977Z,18.10
2022-07-28T07:47:36.925Z,18.20
2022-07-28T07:50:04.682Z,18.30
2022-07-28T07:52:32.176Z,18.40
2022-07-28T07:55:04.673Z,18.50
2022-07-28T07:57:32.474Z,18.50
2022-07-28T07:59:59.275Z,18.60
2022-07-28T08:02:28.393Z,18.70
2022-07-28T08:04:57.730Z,18.70
2022-07-28T08:07:25.364Z,18.80
2022-07-28T08:09:54.951Z,18.80
2022-07-28T08:12:24.651Z,18.80
2022-07-28T08:14:53.436Z,18.80
2022-07-28T08:17:25.538Z,18.90
2022-07-28T08:19:53.582Z,19.00
2022-07-28T08:22:22.698Z,19.00
2022-07-28T08:24:49.694Z,19.10
2022-07-28T08:27:19.176Z,19.20
2022-07-28T08:29:46.008Z,19.30
2022-07-28T08:32:13.130Z,19.40
2022-07-28T08:34:40.198Z,19.50
2022-07-28T08:37:07.143Z,19.70
2022-07-28T08:39:34.930Z,19.80
2022-07-28T08:42:16.480Z,19.90
2022-07-28T08:44:56.293Z,20.00
2022-07-28T08:47:35.658Z,20.30
2022-07-28T08:50:08.244Z,20.60
2022-07-28T08:52:38.877Z,20.80
2022-07-28T08:55:08.898Z,20.90
2022-07-28T08:57:45.985Z,21.00
2022-07-28T09:00:13.232Z,21.20
2022-07-28T09:02:46.111Z,21.40
2022-07-28T09:05:13.825Z,21.80
2022-07-28T09:07:42.108Z,22.20
2022-07-28T09:10:11.852Z,22.50
2022-07-28T09:12:39.986Z,23.00
2022-07-28T09:15:08.955Z,23.30
2022-07-28T09:17:38.665Z,23.20
2022-07-28T09:20:10.835Z,23.00
2022-07-28T09:22:55.920Z,23.10
2022-07-28T09:25:28.227Z,23.10
2022-07-28T09:28:09.673Z,23.20
2022-07-28T09:30:53.624Z,23.50
2022-07-28T09:33:41.801Z,23.60
2022-07-28T09:36:15.537Z,23.50
2022-07-28T09:38:42.520Z,23.50
2022-07-28T09:41:14.633Z,23.50
2022-07-28T09:43:44.519Z,23.90
2022-07-28T09:46:12.930Z,23.90
2022-07-28T09:48:49.194Z,23.90
2022-07-28T09:51:19.378Z,23.70
2022-07-28T09:53:48.797Z,23.50
2022-07-28T09:56:18.741Z,23.70
2022-07-28T09:58:57.919Z,23.70
2022-07-28T10:01:31.181Z,23.80
2022-07-28T10:04:04.083Z,23.90
2022-07-28T10:06:34.671Z,23.70
2022-07-28T10:09:07.832Z,23.70
2022-07-28T10:11:41.612Z,23.70
2022-07-28T10:14:14.142Z,23.70
2022-07-28T10:16:52.645Z,23.70
2022-07-28T10:19:19.600Z,23.70
2022-07-28T10:21:48.495Z,23.70
2022-07-28T10:24:22.168Z,23.50
2022-07-28T10:26:50.436Z,23.40
2022-07-28T10:29:20.380Z,23.10
2022-07-28T10:31:57.879Z,23.00
2022-07-28T10:34:48.263Z,23.00
2022-07-28T10:37:21.381Z,23.00
2022-07-28T10:40:10.582Z,23.00
2022-07-28T10:42:39.622Z,22.90
2022-07-28T10:45:10.555Z,22.80
2022-07-28T10:47:37.432Z,22.80
2022-07-28T10:50:17.648Z,22.60
2022-07-28T10:52:53.665Z,22.50
2022-07-28T10:55:33.345Z,22.30
2022-07-28T10:58:11.275Z,22.20
2022-07-28T11:00:56.813Z,22.20
2022-07-28T11:03:44.401Z,22.30
2022-07-28T11:06:46.028Z,22.20
2022-07-28T11:09:16.066Z,22.10
2022-07-28T11:11:57.947Z,22.10
2022-07-28T11:14:26.023Z,22.10
2022-07-28T11:17:10.172Z,22.00
2022-07-28T11:20:01.110Z,21.90
2022-07-28T11:22:33.195Z,21.90
2022-07-28T11:25:18.889Z,21.80
2022-07-28T11:27:51.521Z,21.70
2022-07-28T11:30:19.220Z,21.90
2022-07-28T11:32:51.501Z,22.00
2022-07-28T11:35:20.190Z,22.00
2022-07-28T11:38:02.471Z,22.10
2022-07-28T11:40:37.840Z,22.20
2022-07-28T11:43:30.650Z,22.30
2022-07-28T11:46:09.479Z,22.40
2022-07-28T11:48:42.813Z,22.40
2022-07-28T11:51:15.989Z,22.30
2022-07-28T11:53:45.577Z,22.20
2022-07-28T11:56:14.533Z,22.20
2022-07-28T11:58:42.721Z,22.40
2022-07-28T12:01:18.041Z,22.80
2022-07-28T12:03:54.186Z,23.00
2022-07-28T12:06:34.036Z,23.00
2022-07-28T12:09:08.163Z,23.00
2022-07-28T12:11:37.179Z,23.00
2022-07-28T12:14:15.503Z,22.90
2022-07-28T12:16:45.247Z,22.80
2022-07-28T12:19:15.808Z,22.80
2022-07-28T12:21:49.258Z,22.50
2022-07-28T12:24:46.015Z,22.50
2022-07-28T12:27:15.323Z,22.50
2022-07-28T12:29:43.653Z,22.50
2022-07-28T12:32:10.767Z,22.40
2022-07-28T12:34:40.936Z,22.30
2022-07-28T12:37:12.208Z,22.30
2022-07-28T12:39:42.016Z,22.40
2022-07-28T12:42:13.363Z,22.50
2022-07-28T12:44:41.250Z,22.70
2022-07-28T12:47:13.389Z,22.80
2022-07-28T12:49:42.096Z,22.80
2022-07-28T12:52:22.128Z,22.90
2022-07-28T12:54:55.017Z,23.00
2022-07-28T12:57:50.440Z,23.20
2022-07-28T13:00:28.378Z,23.40
2022-07-28T13:02:57.699Z,23.60
2022-07-28T13:05:58.386Z,23.70
2022-07-28T13:08:27.684Z,23.60
2022-07-28T13:11:01.234Z,23.70
2022-07-28T13:13:28.839Z,23.80
2022-07-28T13:16:18.795Z,23.90
2022-07-28T13:18:55.864Z,23.90
2022-07-28T13:21:38.680Z,23.70
2022-07-28T13:24:05.735Z,23.70
2022-07-28T13:26:34.773Z,23.60
2022-07-28T13:29:12.784Z,23.60
2022-07-28T13:31:42.490Z,23.60
2022-07-28T13:34:10.163Z,23.50
2022-07-28T13:36:38.324Z,23.60
2022-07-28T13:39:06.542Z,23.60
2022-07-28T13:41:56.247Z,23.50
2022-07-28T13:44:20.792Z,23.60
2022-07-28T13:46:50.648Z,23.70
2022-07-28T13:49:22.814Z,24.40
2022-07-28T13:51:51.135Z,25.10
2022-07-28T13:54:19.313Z,26.60
2022-07-28T13:57:05.543Z,28.80
2022-07-28T13:59:32.532Z,30.90
2022-07-28T14:02:03.471Z,32.80
2022-07-28T14:04:30.416Z,33.70
2022-07-28T14:06:58.591Z,34.60
2022-07-28T14:09:27.598Z,35.60
2022-07-28T14:11:54.690Z,35.40
2022-07-28T14:14:25.558Z,36.70
2022-07-28T14:16:54.213Z,37.90
2022-07-28T14:19:23.342Z,38.80
2022-07-28T14:22:12.695Z,39.40
2022-07-28T14:24:42.998Z,39.90
2022-07-28T14:27:11.097Z,40.50
2022-07-28T14:29:43.298Z,41.20
2022-07-28T14:32:12.176Z,41.70
2022-07-28T14:34:39.735Z,41.40
2022-07-28T14:37:09.531Z,39.70
2022-07-28T14:39:38.190Z,37.40
2022-07-28T14:42:07.711Z,36.30
2022-07-28T14:44:34.811Z,36.00
2022-07-28T14:47:02.141Z,34.70
2022-07-28T14:49:31.881Z,35.60
2022-07-28T14:51:59.495Z,34.70
2022-07-28T14:54:29.262Z,35.80
2022-07-28T14:56:58.574Z,36.40
2022-07-28T14:59:29.939Z,36.80
2022-07-28T15:01:57.456Z,39.20
2022-07-28T15:04:25.476Z,37.20
2022-07-28T15:06:52.899Z,35.50
2022-07-28T15:09:24.559Z,34.70
2022-07-28T15:11:51.453Z,35.30
2022-07-28T15:14:21.526Z,35.00
2022-07-28T15:16:51.454Z,34.70
2022-07-28T15:19:22.745Z,34.90
2022-07-28T15:21:49.818Z,32.90
2022-07-28T15:24:17.338Z,31.20
2022-07-28T15:26:46.916Z,29.40
2022-07-28T15:29:14.041Z,28.30
2022-07-28T15:31:42.372Z,27.80
2022-07-28T15:34:12.423Z,27.20
2022-07-28T15:36:42.594Z,27.10
2022-07-28T15:39:14.137Z,26.70
2022-07-28T15:41:45.776Z,26.10
2022-07-28T15:44:14.123Z,25.80
2022-07-28T15:46:41.476Z,25.50
2022-07-28T15:49:10.438Z,25.40
2022-07-28T15:51:40.348Z,25.40
2022-07-28T15:54:07.723Z,25.40
2022-07-28T15:56:35.957Z,25.30
2022-07-28T15:59:05.509Z,25.30
2022-07-28T16:01:32.787Z,25.20
2022-07-28T16:04:00.523Z,25.10
2022-07-28T16:06:51.590Z,25.00
2022-07-28T16:09:18.841Z,25.00
2022-07-28T16:11:48.104Z,25.00
2022-07-28T16:14:18.087Z,24.90
2022-07-28T16:16:48.020Z,24.90
2022-07-28T16:19:38.521Z,24.90
2022-07-28T16:22:03.258Z,24.80
2022-07-28T16:24:30.214Z,24.80
2022-07-28T16:26:57.289Z,24.70
2022-07-28T16:29:26.301Z,24.60
2022-07-28T16:31:55.743Z,24.60
2022-07-28T16:34:25.339Z,24.50
2022-07-28T16:36:52.328Z,24.40
2022-07-28T16:39:19.438Z,24.40
2022-07-28T16:41:48.226Z,24.30
2022-07-28T16:44:16.068Z,24.20
2022-07-28T16:46:49.937Z,24.20
2022-07-28T16:49:16.945Z,24.20
2022-07-28T16:51:43.916Z,24.20
2022-07-28T16:54:15.733Z,24.20
2022-07-28T16:56:45.837Z,24.20
2022-07-28T16:59:13.181Z,24.10
2022-07-28T17:01:46.209Z,24.00
2022-07-28T17:04:17.211Z,24.00
2022-07-28T17:06:47.776Z,23.90
2022-07-28T17:09:15.988Z,23.90
2022-07-28T17:11:50.059Z,23.80
2022-07-28T17:14:18.902Z,23.80
2022-07-28T17:16:46.155Z,23.70
2022-07-28T17:19:13.051Z,23.70
2022-07-28T17:21:39.973Z,23.70
2022-07-28T17:24:11.975Z,23.70
2022-07-28T17:29:26.466Z,23.60
2022-07-28T17:31:55.593Z,23.60
2022-07-28T17:34:22.718Z,23.60
2022-07-28T17:36:55.520Z,23.50
2022-07-28T17:39:22.535Z,23.50
2022-07-28T17:41:50.432Z,23.50
2022-07-28T17:44:17.963Z,23.40
2022-07-28T17:46:46.650Z,23.40
2022-07-28T17:49:13.596Z,23.40
2022-07-28T17:51:42.659Z,23.30
2022-07-28T17:54:14.212Z,23.30
2022-07-28T17:56:44.310Z,23.20
2022-07-28T17:59:11.127Z,23.20
2022-07-28T18:01:45.085Z,23.20
2022-07-28T18:04:14.898Z,23.20
2022-07-28T18:06:44.569Z,23.20
2022-07-28T18:09:12.034Z,23.10
2022-07-28T18:11:56.619Z,23.00
2022-07-28T18:14:29.747Z,23.10
2022-07-28T18:16:57.191Z,23.00
2022-07-28T18:19:24.705Z,23.00
2022-07-28T18:21:51.725Z,22.90
2022-07-28T18:24:21.606Z,22.90
2022-07-28T18:26:51.407Z,22.90
2022-07-28T18:29:21.429Z,22.90
2022-07-28T18:31:50.831Z,22.80
2022-07-28T18:34:18.412Z,22.80
2022-07-28T18:36:46.165Z,22.80
2022-07-28T18:39:13.095Z,22.80
2022-07-28T18:41:46.341Z,22.80
2022-07-28T18:44:14.310Z,22.80
2022-07-28T18:46:46.251Z,22.70
2022-07-28T18:49:15.732Z,22.70
2022-07-28T18:51:45.721Z,22.70
2022-07-28T18:54:16.475Z,22.60
2022-07-28T18:56:45.711Z,22.60
2022-07-28T18:59:15.539Z,22.60
2022-07-28T19:01:42.617Z,22.50
2022-07-28T19:04:11.891Z,22.50
2022-07-28T19:06:38.908Z,22.50
2022-07-28T19:09:06.269Z,22.50
2022-07-28T19:11:33.502Z,22.40
2022-07-28T19:14:04.854Z,22.40
2022-07-28T19:16:33.901Z,22.40
2022-07-28T19:19:03.037Z,22.40
2022-07-28T19:21:31.178Z,22.30
2022-07-28T19:23:58.016Z,22.30
2022-07-28T19:26:24.984Z,22.30
2022-07-28T19:28:52.429Z,22.20
2022-07-28T19:31:19.477Z,22.20
2022-07-28T19:33:48.504Z,22.10
2022-07-28T19:36:15.647Z,22.10
2022-07-28T19:38:43.935Z,22.00
2022-07-28T19:41:13.537Z,22.00
2022-07-28T19:43:40.564Z,22.00
2022-07-28T19:46:07.621Z,22.00
2022-07-28T19:48:34.515Z,22.00
2022-07-28T19:51:01.386Z,21.90
2022-07-28T19:53:32.350Z,21.90
2022-07-28T19:56:08.906Z,21.90
2022-07-28T19:58:36.459Z,21.90
2022-07-28T20:01:07.172Z,21.80
2022-07-28T20:04:01.249Z,21.90
2022-07-28T20:06:25.009Z,21.80
2022-07-28T20:08:53.156Z,21.80
2022-07-28T20:11:20.143Z,21.80
2022-07-28T20:13:49.573Z,21.80
2022-07-28T20:16:17.138Z,21.80
2022-07-28T20:18:46.256Z,21.80
2022-07-28T20:21:13.178Z,21.70
2022-07-28T20:23:44.747Z,21.70
2022-07-28T20:26:14.557Z,21.70
2022-07-28T20:28:41.489Z,21.70
2022-07-28T20:31:10.447Z,21.70
2022-07-28T20:33:44.997Z,21.60
2022-07-28T20:36:14.132Z,21.60
2022-07-28T20:38:41.134Z,21.60
2022-07-28T20:41:08.024Z,21.60
2022-07-28T20:43:37.900Z,21.50
2022-07-28T20:46:05.405Z,21.50
2022-07-28T20:48:32.495Z,21.40
2022-07-28T20:51:01.410Z,21.40
2022-07-28T20:53:33.976Z,21.40
2022-07-28T20:56:06.121Z,21.30
2022-07-28T20:58:35.177Z,21.30
2022-07-28T21:01:02.034Z,21.30
2022-07-28T21:03:31.304Z,21.20
2022-07-28T21:05:58.141Z,21.10
2022-07-28T21:08:24.942Z,21.10
2022-07-28T21:10:54.109Z,21.10
2022-07-28T21:13:20.900Z,21.10
2022-07-28T21:15:47.788Z,21.10
2022-07-28T21:18:15.331Z,21.00
2022-07-28T21:20:42.362Z,21.00
2022-07-28T21:23:09.428Z,21.00
2022-07-28T21:25:38.440Z,21.00
2022-07-28T21:28:24.681Z,21.00
2022-07-28T21:30:56.282Z,20.90
2022-07-28T21:33:23.414Z,20.90
2022-07-28T21:35:50.736Z,20.90
2022-07-28T21:38:19.966Z,20.90
2022-07-28T21:40:49.299Z,20.90
2022-07-28T21:43:18.664Z,20.90
2022-07-28T21:45:47.905Z,20.90
2022-07-28T21:48:16.963Z,20.80
2022-07-28T21:50:48.899Z,20.70
2022-07-28T21:53:18.431Z,20.70
2022-07-28T21:55:48.281Z,20.80
2022-07-28T21:58:15.715Z,20.70
2022-07-28T22:00:45.457Z,20.70
2022-07-28T22:03:12.545Z,20.60
2022-07-28T22:05:39.424Z,20.60
2022-07-28T22:08:11.047Z,20.60
2022-07-28T22:10:37.972Z,20.60
2022-07-28T22:13:04.775Z,20.60
2022-07-28T22:15:31.654Z,20.50
2022-07-28T22:18:00.912Z,20.50
2022-07-28T22:20:27.758Z,20.50
2022-07-28T22:22:57.017Z,20.50
2022-07-28T22:25:24.040Z,20.40
2022-07-28T22:27:50.945Z,20.40
2022-07-28T22:30:17.824Z,20.30
2022-07-28T22:32:44.671Z,20.30
2022-07-28T22:35:11.658Z,20.30
2022-07-28T22:37:40.904Z,20.30
2022-07-28T22:40:11.899Z,20.20
2022-07-28T22:42:41.202Z,20.10
2022-07-28T22:45:08.663Z,20.10
2022-07-28T22:47:37.754Z,20.10
2022-07-28T22:50:06.627Z,20.00
2022-07-28T22:52:35.805Z,20.00
2022-07-28T22:55:05.835Z,19.90
2022-07-28T22:57:32.697Z,19.90
2022-07-28T22:59:59.674Z,19.90
2022-07-28T23:02:28.775Z,19.80
2022-07-28T23:04:56.549Z,19.80
2022-07-28T23:07:50.858Z,19.80
2022-07-28T23:10:11.050Z,19.80
2022-07-28T23:12:37.886Z,19.90
2022-07-28T23:15:05.835Z,19.80
2022-07-28T23:17:32.686Z,19.80
2022-07-28T23:20:01.507Z,19.80
2022-07-28T23:22:29.333Z,19.70
2022-07-28T23:24:56.824Z,19.70
2022-07-28T23:27:25.984Z,19.70
2022-07-28T23:29:54.988Z,19.70
2022-07-28T23:32:21.757Z,19.60
2022-07-28T23:34:49.635Z,19.60
2022-07-28T23:37:18.614Z,19.60
2022-07-28T23:39:47.679Z,19.60
2022-07-28T23:42:14.952Z,19.50
2022-07-28T23:44:41.772Z,19.50
2022-07-28T23:47:10.852Z,19.50
2022-07-28T23:49:42.498Z,19.50
2022-07-28T23:52:09.387Z,19.50
2022-07-28T23:54:36.265Z,19.50
2022-07-28T23:57:03.207Z,19.40
2022-07-28T23:59:33.736Z,19.40
